Accueil
METAR-TAF:

METAR-TAF

Aéroports :

Aéroport international de Bahreïn

Bahreïn, Bahreïn

latitude: 26-16N, longitude: 050-39E, altitude: 2 m

Observation

Le bulletin a été fait il y a 34 minutes, à 11:30 UTC
Vent 23 kt de nord/nord-ouest
Température 25°C
Humidité 30%
Pression 1016 hPa
Visibilité 10 km ou plus
Nuages épars à une hauteur de 3000 ft

METAR: OBBI 231130Z 33023KT 9999 SCT030 25/06 Q1016 NOSIG

Heure: 15:04 (12:04 UTC)

Prévision

Le bulletin a été fait il y a 1 heure et 4 minutes, à 11:00 UTC
Prévision valable du 23 à 12 UTC au 24 à 18 UTC
Vent 18 kt de nord/nord-ouest avec des rafales jusqu'à 28 kt
Visibilité 10 km ou plus
pas de nuages en-dessous de 1500 mètres et pas de cumulonimbus.

TAF: OBBI 231100Z 2312/2418 33018G28KT CAVOK

Observations et prévisions météorologiques de plus de 4000 aéroports (messages METAR et TAF).

Les stations disponibles sont représentées par des disques jaunes et rouges sur la carte.

Passer la souris dessus pour voir le nom de la station.

Cliquer dessus pour voir les observations et prévisions météorologiques.

Pour changer de carte: cliquez sur les boutons verts avec une croix noire pour zoomer, sur le bouton vert avec un tiret pour effectuer un zoom arrière, ou sur les flèches vertes pour les cartes adjacentes.


METAR-TAF: